Time;durP1;ratioP1;P1;durP2;ratioP2;P2;SDS_P1;SDS_P2;PMS_P1;PMS_P2;Temp;Humidity;BMP_temperature;BMP_pressure;BME280_temperature;BME280_humidity;BME280_pressure;Samples;Min_cycle;Max_cycle;Signal;HPM_P1;HPM_P2
2023/05/03 00:00:38;;;;;;;;;;;;;;;5.90;75.83;101807.53;5019157;28;20014;-70
2023/05/03 00:03:42;;;;;;;;;;;;;;;5.81;76.04;101809.38;5020633;28;20184;-70
2023/05/03 00:06:45;;;;;;;;;;;;;;;5.86;76.12;101813.63;5021488;28;20392;-70
2023/05/03 00:09:48;;;;;;;;;;;;;;;5.65;76.29;101805.25;5021995;28;19924;-70
2023/05/03 00:12:53;;;;;;;;;;;;;;;5.65;75.92;101805.25;5020825;28;19924;-70
2023/05/03 00:15:56;;;;;;;;;;;;;;;5.70;76.29;101808.63;5019167;28;20619;-70
2023/05/03 00:18:59;;;;;;;;;;;;;;;5.53;76.69;101805.38;5019782;28;19962;-70
2023/05/03 00:22:02;;;;;;;;;;;;;;;5.40;76.92;101799.47;5020059;28;19963;-69
2023/05/03 00:25:09;;;;;;;;;;;;;;;5.36;76.86;101790.00;5009201;28;19974;-70
2023/05/03 00:28:12;;;;;;;;;;;;;;;5.29;76.61;101789.19;5017669;28;19940;-70
2023/05/03 00:31:15;;;;;;;;;;;;;;;5.26;77.36;101789.19;5018464;28;19968;-70
2023/05/03 00:34:18;;;;;;;;;;;;;;;5.22;77.70;101784.94;5019200;28;20445;-70
2023/05/03 00:37:24;;;;;;;;;;;;;;;5.15;77.67;101783.28;5008003;28;19932;-71
2023/05/03 00:40:27;;;;;;;;;;;;;;;5.11;77.93;101779.00;5009515;28;19928;-69
2023/05/03 00:43:31;;;;;;;;;;;;;;;5.11;78.12;101779.84;5021843;28;20329;-69
2023/05/03 00:46:34;;;;;;;;;;;;;;;5.26;77.84;101776.25;5017981;28;20439;-70
2023/05/03 00:49:37;;;;;;;;;;;;;;;5.24;77.24;101772.81;5018808;28;20365;-69
2023/05/03 00:52:41;;;;;;;;;;;;;;;5.37;76.66;101778.75;5015799;28;19924;-70
2023/05/03 00:55:45;;;;;;;;;;;;;;;5.22;76.70;101769.38;5012448;28;19932;-70
2023/05/03 00:58:52;;;;;;;;;;;;;;;5.10;77.12;101765.16;4999906;28;19924;-70
2023/05/03 01:01:54;;;;;;;;;;;;;;;5.14;77.10;101771.19;5019526;28;20400;-70
2023/05/03 01:04:57;;;;;;;;;;;;;;;4.94;77.71;101771.38;5031691;28;19928;-70
2023/05/03 01:08:27;;;;;;;;;;;;;;;4.90;77.39;101767.94;5031594;28;19940;-69
2023/05/03 01:11:40;;;;;;;;;;;;;;;4.88;77.44;101769.72;5034073;28;20229;-70
2023/05/03 01:15:04;;;;;;;;;;;;;;;5.00;77.24;101767.88;5030205;28;20397;-69
2023/05/03 01:18:11;;;;;;;;;;;;;;;5.05;76.70;101768.69;5035886;28;19971;-70
2023/05/03 01:21:18;;;;;;;;;;;;;;;5.04;76.23;101765.25;5031362;28;20284;-70
2023/05/03 01:24:22;;;;;;;;;;;;;;;4.86;76.63;101766.25;5017756;28;19973;-70
2023/05/03 01:27:25;;;;;;;;;;;;;;;4.81;76.72;101773.19;5030252;28;19969;-70
2023/05/03 01:30:29;;;;;;;;;;;;;;;4.78;77.21;101773.22;5029952;28;19970;-70
2023/05/03 01:33:39;;;;;;;;;;;;;;;4.82;77.42;101772.34;5029607;28;19924;-69
2023/05/03 01:36:43;;;;;;;;;;;;;;;4.88;76.69;101779.19;5018718;28;19932;-69
2023/05/03 01:39:58;;;;;;;;;;;;;;;4.88;76.58;101779.19;5030485;28;19942;-69
2023/05/03 01:43:02;;;;;;;;;;;;;;;4.92;75.83;101785.22;5030379;28;19962;-69
2023/05/03 01:46:05;;;;;;;;;;;;;;;4.93;75.50;101785.22;5029671;28;20418;-69
2023/05/03 01:49:08;;;;;;;;;;;;;;;4.81;75.55;101793.09;5017507;28;19923;-69
2023/05/03 01:52:11;;;;;;;;;;;;;;;4.67;76.66;101790.59;5029985;28;19924;-69
2023/05/03 01:55:35;;;;;;;;;;;;;;;4.56;76.90;101793.28;5030067;28;20426;-70
2023/05/03 01:58:38;;;;;;;;;;;;;;;4.54;77.04;101801.94;5016140;28;19971;-69
2023/05/03 02:01:41;;;;;;;;;;;;;;;4.68;77.16;101799.22;5017799;28;19978;-69
2023/05/03 02:04:45;;;;;;;;;;;;;;;4.59;76.87;101798.41;5030498;28;20025;-69
2023/05/03 02:07:48;;;;;;;;;;;;;;;4.51;76.68;101810.59;5018687;28;19969;-69
2023/05/03 02:10:51;;;;;;;;;;;;;;;4.56;77.29;101808.84;5029956;28;19924;-69
2023/05/03 02:13:54;;;;;;;;;;;;;;;4.44;77.57;101814.09;5030144;28;20043;-69
2023/05/03 02:16:57;;;;;;;;;;;;;;;4.43;77.69;101812.34;5017636;28;19940;-69
2023/05/03 02:20:00;;;;;;;;;;;;;;;4.43;77.95;101815.81;5018411;28;20438;-70
2023/05/03 02:23:03;;;;;;;;;;;;;;;4.51;78.01;101814.91;5018129;28;20025;-69
2023/05/03 02:26:06;;;;;;;;;;;;;;;4.39;78.15;101814.09;5030144;28;19942;-69
2023/05/03 02:29:10;;;;;;;;;;;;;;;4.33;78.46;101805.50;5029812;28;19970;-69
2023/05/03 02:32:12;;;;;;;;;;;;;;;4.37;78.99;101808.09;5017614;28;19965;-69
2023/05/03 02:35:15;;;;;;;;;;;;;;;4.39;78.72;101806.31;5029888;28;20437;-69
2023/05/03 02:38:19;;;;;;;;;;;;;;;4.52;78.50;101811.44;5017243;28;19924;-69
2023/05/03 02:41:22;;;;;;;;;;;;;;;4.55;78.32;101803.66;5017286;28;19924;-70
2023/05/03 02:44:25;;;;;;;;;;;;;;;4.53;78.45;101802.78;5029179;28;19928;-70
2023/05/03 02:47:29;;;;;;;;;;;;;;;4.48;77.78;101799.38;5017703;28;19940;-69
2023/05/03 02:50:32;;;;;;;;;;;;;;;4.48;77.67;101799.38;5030384;28;19928;-69
2023/05/03 02:53:36;;;;;;;;;;;;;;;4.43;77.58;101802.88;5018168;28;19924;-69
2023/05/03 02:56:39;;;;;;;;;;;;;;;4.32;77.89;101802.06;5017168;28;20025;-70
2023/05/03 02:59:43;;;;;;;;;;;;;;;4.33;77.86;101805.50;5016942;28;20355;-69
2023/05/03 03:02:46;;;;;;;;;;;;;;;4.13;77.81;101808.22;5029146;28;19940;-69
2023/05/03 03:05:49;;;;;;;;;;;;;;;4.15;77.53;101802.16;5017671;28;19925;-69
2023/05/03 03:08:53;;;;;;;;;;;;;;;4.25;77.26;101802.97;5017811;28;19924;-69
2023/05/03 03:11:56;;;;;;;;;;;;;;;4.14;76.92;101800.44;5014447;28;20012;-69
2023/05/03 03:15:00;;;;;;;;;;;;;;;4.10;77.61;101800.47;5015072;28;19924;-70
2023/05/03 03:18:05;;;;;;;;;;;;;;;4.15;77.59;101798.72;5015843;28;20034;-70
2023/05/03 03:21:08;;;;;;;;;;;;;;;4.28;77.84;101802.97;5016202;28;19924;-70
2023/05/03 03:24:13;;;;;;;;;;;;;;;4.21;77.37;101801.25;5014215;28;20429;-70
2023/05/03 03:27:17;;;;;;;;;;;;;;;4.11;77.47;101799.59;5002153;28;19928;-70
2023/05/03 03:30:20;;;;;;;;;;;;;;;4.17;77.86;101795.22;5015164;28;20334;-70
2023/05/03 03:33:35;;;;;;;;;;;;;;;4.11;77.66;101810.78;5014281;28;20328;-70
2023/05/03 03:36:44;;;;;;;;;;;;;;;3.92;78.60;101807.47;5015976;28;19943;-70
2023/05/03 03:39:48;;;;;;;;;;;;;;;3.96;78.69;101803.97;5028016;28;19982;-70
2023/05/03 03:42:51;;;;;;;;;;;;;;;3.91;78.82;101812.63;5013407;28;19928;-70
2023/05/03 03:45:55;;;;;;;;;;;;;;;3.85;79.07;101813.50;5026093;28;19970;-70
2023/05/03 03:48:59;;;;;;;;;;;;;;;3.80;79.14;101810.09;5014619;28;19928;-70
2023/05/03 03:52:05;;;;;;;;;;;;;;;3.90;78.97;101822.13;5015333;28;19924;-70
2023/05/03 03:55:09;;;;;;;;;;;;;;;3.90;79.26;101822.13;5015628;28;19982;-69
2023/05/03 03:58:12;;;;;;;;;;;;;;;3.81;79.57;101816.97;5016834;28;19947;-74
2023/05/03 04:01:16;;;;;;;;;;;;;;;3.87;78.86;101811.78;5013869;28;19956;-69
2023/05/03 04:04:20;;;;;;;;;;;;;;;3.96;78.95;101816.91;5002184;28;20006;-71
2023/05/03 04:07:25;;;;;;;;;;;;;;;3.91;78.34;101810.88;5002938;28;19925;-73
2023/05/03 04:10:29;;;;;;;;;;;;;;;3.74;79.54;101820.47;4999872;28;19960;-70
2023/05/03 04:13:32;;;;;;;;;;;;;;;3.66;80.13;101811.84;4992787;28;20026;-70
2023/05/03 04:16:35;;;;;;;;;;;;;;;3.54;80.13;101812.72;4991880;28;19967;-69
2023/05/03 04:19:40;;;;;;;;;;;;;;;3.49;80.32;101815.34;4992647;28;19960;-71
2023/05/03 04:22:43;;;;;;;;;;;;;;;3.64;79.82;101809.28;4992958;28;19925;-71
2023/05/03 04:25:48;;;;;;;;;;;;;;;3.55;80.02;101813.63;4991534;28;19940;-71
2023/05/03 04:28:54;;;;;;;;;;;;;;;3.47;80.44;101809.31;4991093;28;19924;-71
2023/05/03 04:32:00;;;;;;;;;;;;;;;3.56;80.71;101802.41;4991711;28;20393;-72
2023/05/03 04:35:08;;;;;;;;;;;;;;;3.51;80.79;101810.19;4992094;28;19925;-73
2023/05/03 04:38:12;;;;;;;;;;;;;;;3.43;80.17;101804.16;4992474;28;19956;-71
2023/05/03 04:41:16;;;;;;;;;;;;;;;3.45;80.89;101815.38;4992320;28;20426;-71
2023/05/03 04:44:22;;;;;;;;;;;;;;;3.62;80.81;101815.31;4992058;28;19972;-72
2023/05/03 04:47:26;;;;;;;;;;;;;;;3.59;80.00;101808.41;4992226;28;19924;-71
2023/05/03 04:50:29;;;;;;;;;;;;;;;3.48;80.75;101812.78;4992990;28;19946;-71
2023/05/03 04:53:32;;;;;;;;;;;;;;;3.60;80.38;101814.44;4992926;28;19987;-71
2023/05/03 04:56:44;;;;;;;;;;;;;;;3.78;79.66;101819.56;4992048;28;20328;-72
2023/05/03 04:59:52;;;;;;;;;;;;;;;3.80;79.73;101824.72;5001685;28;19928;-71
2023/05/03 05:02:57;;;;;;;;;;;;;;;3.92;79.04;101817.81;5000132;28;19976;-71
2023/05/03 05:06:02;;;;;;;;;;;;;;;3.96;78.84;101819.50;5000446;28;19980;-71
2023/05/03 05:09:18;;;;;;;;;;;;;;;3.57;80.56;101823.06;5000462;28;20399;-71
2023/05/03 05:12:22;;;;;;;;;;;;;;;3.71;80.28;101821.31;4999985;28;20396;-71
2023/05/03 05:15:25;;;;;;;;;;;;;;;3.64;80.36;101829.13;5012130;28;19925;-71
2023/05/03 05:18:28;;;;;;;;;;;;;;;3.73;80.39;101826.47;5012165;28;20012;-71
2023/05/03 05:21:32;;;;;;;;;;;;;;;3.76;80.59;101817.84;4999788;28;19924;-71
2023/05/03 05:24:36;;;;;;;;;;;;;;;3.89;80.09;101824.69;4999658;28;20334;-71
2023/05/03 05:27:40;;;;;;;;;;;;;;;4.00;79.63;101822.09;5012188;28;19970;-70
2023/05/03 05:30:43;;;;;;;;;;;;;;;4.07;78.98;101821.19;4999806;28;20335;-71
2023/05/03 05:33:47;;;;;;;;;;;;;;;4.12;78.11;101817.72;4999774;28;19971;-71
2023/05/03 05:36:51;;;;;;;;;;;;;;;4.16;77.90;101814.22;4999673;28;20329;-71
2023/05/03 05:39:54;;;;;;;;;;;;;;;4.09;78.20;101806.50;4999571;28;20396;-71
2023/05/03 05:43:00;;;;;;;;;;;;;;;3.97;78.84;101813.47;4999407;28;19930;-71
2023/05/03 05:46:05;;;;;;;;;;;;;;;3.97;78.48;101820.38;4999738;28;19925;-71
2023/05/03 05:49:08;;;;;;;;;;;;;;;3.99;78.48;101830.69;4999517;28;19925;-72
2023/05/03 05:52:11;;;;;;;;;;;;;;;3.85;79.48;101838.53;4999287;28;19928;-72
2023/05/03 05:55:15;;;;;;;;;;;;;;;3.85;79.53;101836.78;4999387;28;19924;-72
2023/05/03 05:58:20;;;;;;;;;;;;;;;4.08;79.71;101835.84;4998799;28;19962;-73
2023/05/03 06:01:27;;;;;;;;;;;;;;;4.29;78.76;101840.06;5011346;28;20289;-72
2023/05/03 06:04:30;;;;;;;;;;;;;;;4.45;78.66;101840.84;4999222;28;20357;-71
2023/05/03 06:07:34;;;;;;;;;;;;;;;4.55;78.51;101843.34;4999112;28;19924;-72
2023/05/03 06:10:39;;;;;;;;;;;;;;;4.68;78.41;101841.53;5010116;28;21478;-72
2023/05/03 06:13:42;;;;;;;;;;;;;;;4.75;78.27;101832.84;4999115;28;19942;-71
2023/05/03 06:16:47;;;;;;;;;;;;;;;4.72;79.17;101830.28;4999320;28;20431;-71
2023/05/03 06:19:50;;;;;;;;;;;;;;;4.82;79.29;101834.53;4998788;28;20423;-72
2023/05/03 06:22:55;;;;;;;;;;;;;;;4.96;79.01;101828.38;4998926;28;19960;-72
2023/05/03 06:25:58;;;;;;;;;;;;;;;4.94;79.03;101822.34;4998797;28;19964;-72
2023/05/03 06:29:02;;;;;;;;;;;;;;;4.98;79.23;101824.03;4998789;28;19928;-71
2023/05/03 06:32:06;;;;;;;;;;;;;;;5.21;79.26;101819.53;4998933;28;19924;-72
2023/05/03 06:35:09;;;;;;;;;;;;;;;5.35;78.33;101821.97;5010953;28;19975;-71
2023/05/03 06:38:14;;;;;;;;;;;;;;;5.35;78.13;101827.16;4997967;28;20063;-70
2023/05/03 06:41:18;;;;;;;;;;;;;;;5.44;78.63;101818.44;4998679;28;19925;-71
2023/05/03 06:44:22;;;;;;;;;;;;;;;5.52;78.67;101824.38;5010709;28;20411;-70
2023/05/03 06:47:25;;;;;;;;;;;;;;;5.66;78.42;101812.13;5010825;28;19971;-70
2023/05/03 06:50:28;;;;;;;;;;;;;;;5.85;77.99;101817.97;5010786;28;19971;-71
2023/05/03 06:53:30;;;;;;;;;;;;;;;5.98;77.21;101816.97;5010713;28;20292;-71
2023/05/03 06:56:34;;;;;;;;;;;;;;;6.19;77.13;101823.66;5010533;28;19924;-71
2023/05/03 06:59:37;;;;;;;;;;;;;;;6.38;76.38;101818.16;5009450;28;20396;-71
2023/05/03 07:02:40;;;;;;;;;;;;;;;6.47;75.00;101812.84;5007682;28;20395;-71
2023/05/03 07:05:45;;;;;;;;;;;;;;;6.55;74.45;101815.34;5007778;28;19968;-71
2023/05/03 07:08:52;;;;;;;;;;;;;;;6.64;74.04;101815.22;5008037;28;19979;-71
2023/05/03 07:11:55;;;;;;;;;;;;;;;6.81;73.22;101810.59;5008691;28;20300;-71
2023/05/03 07:14:58;;;;;;;;;;;;;;;6.87;72.63;101807.06;4998178;28;19962;-71
2023/05/03 07:18:01;;;;;;;;;;;;;;;6.98;72.23;101799.91;5010394;28;20494;-71
2023/05/03 07:21:05;;;;;;;;;;;;;;;7.05;71.33;101800.66;5010635;28;19943;-71
2023/05/03 07:24:11;;;;;;;;;;;;;;;7.08;69.10;101796.25;5010216;28;19944;-71
2023/05/03 07:27:14;;;;;;;;;;;;;;;7.13;68.53;101791.84;5010670;28;19923;-71
2023/05/03 07:30:17;;;;;;;;;;;;;;;7.31;69.24;101795.03;5010698;28;19925;-71
2023/05/03 07:33:20;;;;;;;;;;;;;;;7.44;68.94;101788.69;5013710;28;20285;-70
2023/05/03 07:36:24;;;;;;;;;;;;;;;7.49;67.98;101793.78;5014008;28;20038;-71
2023/05/03 07:39:27;;;;;;;;;;;;;;;7.63;68.05;101790.06;5013649;28;19970;-71
2023/05/03 07:42:30;;;;;;;;;;;;;;;7.77;67.53;101787.16;5013844;28;19924;-71
2023/05/03 07:45:32;;;;;;;;;;;;;;;7.84;66.04;101787.88;5013485;28;19928;-71
2023/05/03 07:48:35;;;;;;;;;;;;;;;7.96;66.79;101789.38;5013776;28;19925;-71
2023/05/03 07:51:38;;;;;;;;;;;;;;;8.04;65.52;101782.25;5013430;28;19980;-71
2023/05/03 07:54:42;;;;;;;;;;;;;;;8.10;65.19;101783.00;5013460;28;19925;-71
2023/05/03 07:57:45;;;;;;;;;;;;;;;8.22;64.87;101781.00;5013273;28;19925;-71
2023/05/03 08:00:48;;;;;;;;;;;;;;;8.36;65.14;101778.97;5013164;28;19951;-71
2023/05/03 08:03:52;;;;;;;;;;;;;;;8.46;63.30;101771.81;5012440;28;19929;-71
2023/05/03 08:06:55;;;;;;;;;;;;;;;8.54;62.62;101770.72;5013358;28;19955;-71
2023/05/03 08:09:58;;;;;;;;;;;;;;;8.73;63.23;101771.13;5013192;28;19967;-71
2023/05/03 08:13:01;;;;;;;;;;;;;;;8.88;59.99;101764.69;5012980;28;19929;-71
2023/05/03 08:16:05;;;;;;;;;;;;;;;8.97;61.08;101763.59;5013080;28;19925;-71
2023/05/03 08:19:08;;;;;;;;;;;;;;;9.06;60.41;101766.81;5013011;28;19929;-71
2023/05/03 08:22:11;;;;;;;;;;;;;;;9.16;59.31;101756.16;5013240;28;20027;-71
2023/05/03 08:25:16;;;;;;;;;;;;;;;9.29;58.29;101752.31;5012839;28;19987;-71
2023/05/03 08:28:19;;;;;;;;;;;;;;;9.31;56.33;101745.25;5012841;28;19962;-71
2023/05/03 08:31:22;;;;;;;;;;;;;;;9.39;57.07;101750.28;5000625;28;19928;-71
2023/05/03 08:34:26;;;;;;;;;;;;;;;9.48;57.60;101750.91;5000980;28;19975;-71
2023/05/03 08:37:29;;;;;;;;;;;;;;;9.62;56.62;101742.66;5012760;28;20016;-71
2023/05/03 08:40:36;;;;;;;;;;;;;;;9.67;56.31;101745.16;5012681;28;20346;-71
2023/05/03 08:43:42;;;;;;;;;;;;;;;9.74;56.24;101746.69;5012555;28;19979;-71
2023/05/03 08:46:45;;;;;;;;;;;;;;;9.85;54.05;101734.13;5012746;28;19925;-71
2023/05/03 08:49:51;;;;;;;;;;;;;;;9.90;55.60;101737.47;5012425;28;19924;-71
2023/05/03 08:52:54;;;;;;;;;;;;;;;10.02;53.01;101742.34;5012710;28;19924;-71
2023/05/03 08:55:57;;;;;;;;;;;;;;;10.06;53.87;101734.41;5012484;28;20388;-71
2023/05/03 08:59:06;;;;;;;;;;;;;;;10.16;52.56;101722.75;5012266;28;20293;-71
2023/05/03 09:02:10;;;;;;;;;;;;;;;10.24;52.89;101733.81;5012378;28;19962;-71
2023/05/03 09:05:12;;;;;;;;;;;;;;;10.32;53.44;101726.63;5011201;28;19967;-71
2023/05/03 09:08:15;;;;;;;;;;;;;;;10.44;53.81;101720.16;5012570;28;20013;-71
2023/05/03 09:11:21;;;;;;;;;;;;;;;10.50;52.43;101716.47;5012181;28;19925;-71
2023/05/03 09:14:24;;;;;;;;;;;;;;;10.55;52.55;101725.88;5012136;28;20449;-71
2023/05/03 09:17:28;;;;;;;;;;;;;;;10.65;52.31;101722.03;5012252;28;20338;-71
2023/05/03 09:20:35;;;;;;;;;;;;;;;10.79;51.62;101718.97;5012528;28;20463;-71
2023/05/03 09:23:38;;;;;;;;;;;;;;;10.79;51.71;101713.75;5011894;28;20484;-71
2023/05/03 09:26:42;;;;;;;;;;;;;;;10.70;50.12;101709.69;5011970;28;19925;-71
2023/05/03 09:29:45;;;;;;;;;;;;;;;10.78;51.14;101709.41;5011908;28;19924;-71
2023/05/03 09:32:48;;;;;;;;;;;;;;;11.00;50.48;101711.28;5012203;28;19924;-71
2023/05/03 09:35:55;;;;;;;;;;;;;;;11.03;50.31;101711.19;5011916;28;19925;-71
2023/05/03 09:39:14;;;;;;;;;;;;;;;11.10;51.04;101703.06;5011962;28;19971;-71
2023/05/03 09:42:17;;;;;;;;;;;;;;;11.11;50.42;101702.16;5011715;28;19924;-71
2023/05/03 09:45:24;;;;;;;;;;;;;;;11.15;50.15;101700.28;5011658;28;20066;-71
2023/05/03 09:48:27;;;;;;;;;;;;;;;11.23;49.84;101703.50;5011860;28;19978;-71
2023/05/03 09:51:32;;;;;;;;;;;;;;;11.32;50.62;101713.59;5011673;28;20523;-71
2023/05/03 09:54:36;;;;;;;;;;;;;;;11.44;50.10;101716.69;4998574;28;19924;-71
2023/05/03 09:57:39;;;;;;;;;;;;;;;11.49;50.07;101722.63;5011475;28;19971;-71
2023/05/03 10:00:45;;;;;;;;;;;;;;;11.53;48.95;101721.59;5011310;28;19951;-71
2023/05/03 10:03:49;;;;;;;;;;;;;;;11.66;49.05;101712.38;5011357;28;20399;-72
2023/05/03 10:06:55;;;;;;;;;;;;;;;11.54;48.13;101712.81;5011387;28;19925;-71
2023/05/03 10:09:58;;;;;;;;;;;;;;;11.52;47.39;101710.28;5011307;28;19924;-71
2023/05/03 10:13:02;;;;;;;;;;;;;;;11.62;47.77;101710.78;4999361;28;19928;-71
2023/05/03 10:16:12;;;;;;;;;;;;;;;11.61;48.61;101688.09;4999084;28;20464;-71
2023/05/03 10:19:22;;;;;;;;;;;;;;;11.81;49.01;101682.97;5011383;28;20396;-71
2023/05/03 10:22:25;;;;;;;;;;;;;;;12.03;48.90;101675.13;5011179;28;19941;-71
2023/05/03 10:25:29;;;;;;;;;;;;;;;12.16;49.37;101675.50;5011016;28;19943;-71
2023/05/03 10:28:32;;;;;;;;;;;;;;;12.23;48.05;101671.69;5011064;28;19928;-71
2023/05/03 10:31:43;;;;;;;;;;;;;;;12.24;47.20;101668.16;5011067;28;20233;-71
2023/05/03 10:34:46;;;;;;;;;;;;;;;12.33;47.21;101674.81;4997158;28;20478;-71
2023/05/03 10:37:50;;;;;;;;;;;;;;;12.43;45.66;101664.78;5010573;28;19928;-71
2023/05/03 10:40:54;;;;;;;;;;;;;;;12.67;46.47;101666.38;5010706;28;19956;-71
2023/05/03 10:43:57;;;;;;;;;;;;;;;12.65;45.38;101669.97;5010746;28;19944;-71
2023/05/03 10:47:11;;;;;;;;;;;;;;;12.55;45.80;101666.88;5011146;28;20400;-71
2023/05/03 10:50:15;;;;;;;;;;;;;;;12.63;47.20;101658.69;5010716;28;19963;-71
2023/05/03 10:53:30;;;;;;;;;;;;;;;12.72;47.18;101653.03;5010717;28;20008;-71
2023/05/03 10:56:45;;;;;;;;;;;;;;;12.78;46.33;101653.63;4998253;28;19940;-70
2023/05/03 10:59:50;;;;;;;;;;;;;;;12.94;45.78;101652.97;5009803;28;19929;-70
2023/05/03 11:03:08;;;;;;;;;;;;;;;13.03;46.64;101647.31;5008882;28;20388;-70
2023/05/03 11:06:31;;;;;;;;;;;;;;;13.13;46.14;101640.72;5015779;28;20350;-69
2023/05/03 11:09:34;;;;;;;;;;;;;;;13.16;46.31;101642.34;5016631;28;20047;-71
2023/05/03 11:12:37;;;;;;;;;;;;;;;13.20;46.82;101629.00;5016353;28;19941;-71
2023/05/03 11:15:40;;;;;;;;;;;;;;;13.48;46.52;101628.63;5016378;28;19971;-71
2023/05/03 11:18:44;;;;;;;;;;;;;;;13.70;44.10;101633.72;5017005;28;19923;-69
2023/05/03 11:21:47;;;;;;;;;;;;;;;13.50;42.54;101623.31;5017178;28;20388;-70
2023/05/03 11:24:50;;;;;;;;;;;;;;;13.54;43.93;101621.38;5016695;28;19967;-69
2023/05/03 11:27:53;;;;;;;;;;;;;;;13.62;42.11;101608.72;5016855;28;19940;-70
2023/05/03 11:30:56;;;;;;;;;;;;;;;13.73;46.45;101615.16;5016788;28;19970;-75
2023/05/03 11:33:59;;;;;;;;;;;;;;;13.87;43.80;101603.13;5016782;28;19925;-69
2023/05/03 11:37:03;;;;;;;;;;;;;;;14.07;44.30;101597.75;5016834;28;19966;-69
2023/05/03 11:40:07;;;;;;;;;;;;;;;14.10;44.42;101599.34;5016606;28;19939;-69
2023/05/03 11:43:10;;;;;;;;;;;;;;;14.21;42.81;101590.94;5004502;28;20393;-69
2023/05/03 11:46:21;;;;;;;;;;;;;;;14.29;42.52;101588.75;5016697;28;20031;-70
2023/05/03 11:49:24;;;;;;;;;;;;;;;14.42;41.53;101590.72;5016578;28;20012;-69
2023/05/03 11:52:27;;;;;;;;;;;;;;;14.45;41.87;101581.78;5016572;28;19923;-69
2023/05/03 11:55:30;;;;;;;;;;;;;;;14.55;43.28;101587.44;5016475;28;20459;-69
2023/05/03 11:58:34;;;;;;;;;;;;;;;14.67;42.96;101593.88;5016376;28;20319;-70
2023/05/03 12:01:37;;;;;;;;;;;;;;;14.88;41.01;101587.47;5004408;28;20293;-72
2023/05/03 12:04:42;;;;;;;;;;;;;;;14.96;41.17;101577.38;5016366;28;19928;-71
2023/05/03 12:07:46;;;;;;;;;;;;;;;14.97;39.77;101579.09;5016330;28;19970;-76
2023/05/03 12:10:49;;;;;;;;;;;;;;;15.02;42.07;101577.03;5016392;28;19943;-73
2023/05/03 12:13:58;;;;;;;;;;;;;;;14.92;41.82;101573.19;5015902;28;20388;-72
2023/05/03 12:17:02;;;;;;;;;;;;;;;15.00;41.54;101571.03;5012591;28;20431;-68
2023/05/03 12:20:18;;;;;;;;;;;;;;;15.10;41.90;101566.94;5012177;28;20376;-72
2023/05/03 12:23:21;;;;;;;;;;;;;;;15.29;40.90;101568.56;5012373;28;20411;-72
2023/05/03 12:26:25;;;;;;;;;;;;;;;15.39;41.08;101561.84;5012821;28;20353;-73
2023/05/03 12:29:30;;;;;;;;;;;;;;;15.46;40.63;101546.53;5013060;28;19998;-80
2023/05/03 12:32:33;;;;;;;;;;;;;;;15.64;40.46;101547.28;5013169;28;19924;-72
2023/05/03 12:35:38;;;;;;;;;;;;;;;15.79;39.79;101538.50;5012653;28;20022;-71
2023/05/03 12:38:44;;;;;;;;;;;;;;;15.96;39.25;101530.47;5000331;28;19974;-72
2023/05/03 12:41:50;;;;;;;;;;;;;;;15.94;38.83;101528.88;5012984;28;19971;-71
2023/05/03 12:44:59;;;;;;;;;;;;;;;16.19;39.17;101525.63;5012583;28;19928;-71
2023/05/03 12:48:03;;;;;;;;;;;;;;;16.33;38.34;101509.78;5012573;28;19970;-72
2023/05/03 12:51:06;;;;;;;;;;;;;;;16.45;37.51;101514.31;5000663;28;19943;-71
2023/05/03 12:54:10;;;;;;;;;;;;;;;16.63;37.45;101519.44;5011781;28;20388;-72
2023/05/03 12:57:13;;;;;;;;;;;;;;;16.81;37.61;101518.28;5011044;28;20293;-71
2023/05/03 13:00:19;;;;;;;;;;;;;;;16.81;37.45;101513.00;5010393;28;19974;-71
2023/05/03 13:03:25;;;;;;;;;;;;;;;17.06;37.94;101511.47;5011146;28;20026;-72
2023/05/03 13:06:31;;;;;;;;;;;;;;;17.05;36.33;101499.22;5011706;28;19924;-72
2023/05/03 13:09:35;;;;;;;;;;;;;;;17.31;35.72;101495.72;5012122;28;20396;-70
2023/05/03 13:12:39;;;;;;;;;;;;;;;17.47;35.32;101489.44;5012160;28;19939;-70
2023/05/03 13:15:42;;;;;;;;;;;;;;;17.69;36.02;101494.16;5012184;28;20020;-70
2023/05/03 13:18:47;;;;;;;;;;;;;;;17.86;36.10;101491.25;5009191;28;19970;-72
2023/05/03 13:21:51;;;;;;;;;;;;;;;18.10;35.23;101480.81;5019569;28;19924;-72
2023/05/03 13:24:55;;;;;;;;;;;;;;;18.55;35.07;101478.56;5031537;28;19932;-72
2023/05/03 13:27:59;;;;;;;;;;;;;;;18.93;33.68;101480.31;5030787;28;20443;-72
2023/05/03 13:31:02;;;;;;;;;;;;;;;18.78;32.63;101464.53;5031649;28;19928;-71
2023/05/03 13:34:05;;;;;;;;;;;;;;;19.15;32.60;101461.03;5031600;28;20047;-73
2023/05/03 13:37:08;;;;;;;;;;;;;;;19.71;33.25;101442.69;5031795;28;19962;-71
2023/05/03 13:40:13;;;;;;;;;;;;;;;20.13;32.68;101448.31;5031478;28;19974;-72
2023/05/03 13:43:16;;;;;;;;;;;;;;;20.19;32.67;101445.16;5031385;28;19978;-73
2023/05/03 13:46:19;;;;;;;;;;;;;;;20.48;31.66;101444.69;5031718;28;19970;-73
2023/05/03 13:49:23;;;;;;;;;;;;;;;20.93;30.52;101437.53;5031427;28;20399;-71
2023/05/03 13:52:27;;;;;;;;;;;;;;;20.81;29.70;101433.22;5031381;28;19924;-72
2023/05/03 13:55:30;;;;;;;;;;;;;;;20.89;29.75;101425.44;5031252;28;19962;-71
2023/05/03 13:58:35;;;;;;;;;;;;;;;21.75;29.49;101427.13;5031280;28;20391;-72
2023/05/03 14:01:39;;;;;;;;;;;;;;;23.21;27.41;101414.31;5031192;28;19970;-73
2023/05/03 14:04:41;;;;;;;;;;;;;;;26.13;23.95;101406.25;5031085;28;20457;-73
2023/05/03 14:07:44;;;;;;;;;;;;;;;28.14;21.08;101392.44;5031168;28;20435;-72
2023/05/03 14:10:51;;;;;;;;;;;;;;;28.66;20.11;101393.75;5031270;28;20021;-72
2023/05/03 14:14:45;;;;;;;;;;;;;;;28.14;20.09;101388.94;5054132;28;19923;-73
2023/05/03 14:17:49;;;;;;;;;;;;;;;28.70;19.21;101377.06;5030611;28;19970;-72
2023/05/03 14:20:58;;;;;;;;;;;;;;;29.89;18.91;101370.13;5030789;28;20293;-72
2023/05/03 14:24:05;;;;;;;;;;;;;;;29.63;18.28;101375.16;5030333;28;20057;-72
2023/05/03 14:27:08;;;;;;;;;;;;;;;30.59;17.18;101359.78;5030577;28;19970;-73
2023/05/03 14:30:11;;;;;;;;;;;;;;;28.82;18.23;101365.91;5030798;28;19924;-72
2023/05/03 14:33:14;;;;;;;;;;;;;;;30.01;18.20;101356.19;5030751;28;19924;-73
2023/05/03 14:36:18;;;;;;;;;;;;;;;30.13;17.67;101354.69;5030694;28;19960;-74
2023/05/03 14:39:21;;;;;;;;;;;;;;;30.32;17.85;101348.72;5030111;28;19924;-74
2023/05/03 14:42:28;;;;;;;;;;;;;;;30.03;16.73;101343.34;5030572;28;20002;-73
2023/05/03 14:45:31;;;;;;;;;;;;;;;31.22;16.76;101338.38;5030503;28;20024;-74
2023/05/03 14:48:34;;;;;;;;;;;;;;;31.65;15.96;101324.72;5030383;28;19923;-73
2023/05/03 14:51:37;;;;;;;;;;;;;;;31.14;16.70;101328.53;5030622;28;19940;-72
2023/05/03 14:54:40;;;;;;;;;;;;;;;31.30;16.52;101324.69;5030106;28;20426;-72
2023/05/03 14:57:43;;;;;;;;;;;;;;;29.75;17.52;101338.63;5029914;28;20430;-73
2023/05/03 15:00:46;;;;;;;;;;;;;;;29.66;17.15;101331.66;5013444;28;19936;-73
2023/05/03 15:03:49;;;;;;;;;;;;;;;30.17;16.90;101338.94;5010130;28;20045;-73
2023/05/03 15:06:52;;;;;;;;;;;;;;;30.09;17.52;101335.34;5010539;28;20296;-74
2023/05/03 15:09:57;;;;;;;;;;;;;;;30.37;17.25;101323.00;5010797;28;20001;-74
2023/05/03 15:13:03;;;;;;;;;;;;;;;28.85;17.62;101326.00;5010546;28;19940;-73
2023/05/03 15:16:06;;;;;;;;;;;;;;;29.48;17.94;101323.06;5010144;28;20408;-73
2023/05/03 15:19:09;;;;;;;;;;;;;;;28.82;17.72;101314.75;5009316;28;19970;-73
2023/05/03 15:22:12;;;;;;;;;;;;;;;28.71;17.76;101310.63;5010385;28;19970;-79
2023/05/03 15:25:16;;;;;;;;;;;;;;;29.32;18.81;101313.28;5010186;28;19984;-71
2023/05/03 15:28:20;;;;;;;;;;;;;;;30.17;17.80;101312.81;5010284;28;20304;-72
2023/05/03 15:31:23;;;;;;;;;;;;;;;30.73;17.90;101307.63;5009587;28;19970;-71
2023/05/03 15:34:26;;;;;;;;;;;;;;;30.13;17.34;101306.13;5010219;28;20465;-71
2023/05/03 15:37:34;;;;;;;;;;;;;;;30.19;17.95;101301.84;5010206;28;19924;-72
2023/05/03 15:40:38;;;;;;;;;;;;;;;29.66;17.99;101299.31;5010104;28;19924;-71
2023/05/03 15:43:41;;;;;;;;;;;;;;;30.42;16.77;101299.00;5009742;28;20384;-73
2023/05/03 15:46:44;;;;;;;;;;;;;;;30.24;17.07;101297.56;5009657;28;20311;-73
2023/05/03 15:49:51;;;;;;;;;;;;;;;30.04;16.88;101301.88;5009762;28;19924;-73
2023/05/03 15:52:55;;;;;;;;;;;;;;;29.66;17.31;101289.38;5012183;28;19928;-73
2023/05/03 15:56:01;;;;;;;;;;;;;;;30.08;17.34;101286.97;5011246;28;20312;-73